Amsterdam, Netherlands

12:44 PM CET on December 05, 2016 (GMT +0100)
Aalsmeerderdijk | | Change Station

Elev -6 ft 52.28 °N, 4.76 °E | Updated 5 minutes ago

Clear
Clear
40.1 °F
Feels Like 40 °F
N
0.6
Wind Variable Wind from SW
Gusts 1.9 mph

Today
High -- | Low -- °F
--% Chance of Precip.
Yesterday
High -- | Low -- °F
Precip. -- in
Pressure 30.30 in
Visibility -9999.0 miles
Clouds
Windchill 40 °F
Dew Point 34 °F
Humidity 79%
Rainfall 0.00 in
Snow Depth Not available.
8:33 AM 4:29 PM
Waxing Crescent, 31% visible
METAR EHAM 051125Z 15004KT CAVOK 02/M03 Q1026 NOSIG
Pressure 30.30 in
Visibility -9999.0 miles
Clouds
Windchill 40 °F
Dew Point 34 °F
Humidity 79%
Rainfall 0.00 in
Snow Depth Not available.
8:33 AM 4:29 PM
Waxing Crescent, 31% visible
METAR EHAM 051125Z 15004KT CAVOK 02/M03 Q1026 NOSIG

10-Day Weather Forecast

×

Almanac

Astronomy

Dec. 05, 2016 Rise Set
Actual Time
Civil Twilight
Nautical Twilight
Astronomical Twilight
Moon
Length of Visible Light
Length of Day
Tomorrow will be .
, % of the Moon is Illuminated

Today's Extremes

Country Highs Country Lows

Community

WunderPhotos

Upload Photos

1,955,777 photos uploaded!

WunderBlog® & News

Nearby

Air Quality

  Air Quality AQ Index Pollutant
Not available.

Snow Depth

Station Depth Elevation

Earthquake Activity

City Distance Mag. Time & Date
Minimum magnitude displayed is 2.5.

Coastal Water Temperatures

Place Temperature

Stations

Nearby Weather Stations

Station Location Temp. Windchill Dew Point Humidity Wind Precip. Elev Updated Type